Time;durP1;ratioP1;P1;durP2;ratioP2;P2;SDS_P1;SDS_P2;PMS_P1;PMS_P2;Temp;Humidity;BMP_temperature;BMP_pressure;BME280_temperature;BME280_humidity;BME280_pressure;Samples;Min_cycle;Max_cycle;Signal;HPM_P1;HPM_P2
2023/12/19 00:01:53;;;;;;;78.13;29.45;;;;;;;10.91;79.66;102539.53;5012268;28;20069;-47
2023/12/19 00:04:18;;;;;;;80.78;31.05;;;;;;;10.72;79.63;102529.22;5012045;28;20143;-47
2023/12/19 00:06:44;;;;;;;79.38;31.45;;;;;;;10.87;79.94;102514.13;5012734;28;20044;-46
2023/12/19 00:09:09;;;;;;;75.47;30.88;;;;;;;10.99;79.37;102509.38;5012493;28;20041;-46
2023/12/19 00:11:34;;;;;;;79.53;30.95;;;;;;;11.09;78.81;102489.75;5012454;28;20033;-47
2023/12/19 00:14:00;;;;;;;87.85;31.50;;;;;;;10.83;79.17;102480.94;5012424;28;20038;-47
2023/12/19 00:16:26;;;;;;;80.78;30.67;;;;;;;10.89;79.42;102474.22;5012857;28;20556;-51
2023/12/19 00:18:51;;;;;;;82.85;30.90;;;;;;;10.87;80.21;102475.00;5012652;28;20048;-46
2023/12/19 00:21:16;;;;;;;77.60;30.38;;;;;;;10.81;80.55;102487.81;5011567;28;20180;-47
2023/12/19 00:23:41;;;;;;;80.18;30.15;;;;;;;11.02;79.35;102482.53;5011931;28;20034;-45
2023/12/19 00:26:07;;;;;;;83.32;29.98;;;;;;;10.57;81.07;102486.03;5011633;28;20066;-45
2023/12/19 00:28:32;;;;;;;82.57;30.02;;;;;;;10.90;79.74;102478.63;5012242;28;20116;-48
2023/12/19 00:30:58;;;;;;;78.40;29.33;;;;;;;11.11;79.17;102477.63;5012395;28;20065;-45
2023/12/19 00:33:23;;;;;;;78.78;28.88;;;;;;;11.13;78.72;102463.81;5011649;28;20034;-44
2023/12/19 00:35:50;;;;;;;76.95;28.58;;;;;;;11.35;78.39;102457.63;5012079;28;20026;-49
2023/12/19 00:38:16;;;;;;;76.55;28.98;;;;;;;10.86;79.56;102457.56;5011415;28;20033;-44
2023/12/19 00:40:41;;;;;;;77.57;28.33;;;;;;;10.56;81.51;102463.41;5012051;28;20439;-45
2023/12/19 00:43:06;;;;;;;82.68;28.63;;;;;;;10.97;80.24;102467.59;5010310;28;20543;-49
2023/12/19 00:45:32;;;;;;;74.63;28.55;;;;;;;10.84;80.09;102462.75;5012086;28;20077;-45
2023/12/19 00:47:57;;;;;;;71.45;27.77;;;;;;;10.88;80.04;102464.63;5011786;28;20042;-46
2023/12/19 00:50:22;;;;;;;68.55;27.30;;;;;;;10.97;80.93;102461.47;5011715;28;20037;-44
2023/12/19 00:52:48;;;;;;;75.60;28.15;;;;;;;10.78;81.04;102457.28;5011501;28;20042;-49
2023/12/19 00:55:14;;;;;;;81.43;28.27;;;;;;;10.69;82.10;102446.50;5010208;28;20501;-46
2023/12/19 00:57:39;;;;;;;75.53;28.40;;;;;;;11.24;80.25;102446.81;5011734;28;20029;-44
2023/12/19 01:00:05;;;;;;;92.68;29.02;;;;;;;11.14;80.37;102436.88;5011533;28;20119;-44
2023/12/19 01:02:33;;;;;;;81.18;28.92;;;;;;;11.18;79.89;102436.16;5010129;28;20038;-43
2023/12/19 01:04:58;;;;;;;85.03;29.85;;;;;;;11.36;79.23;102446.34;5011414;28;20069;-44
2023/12/19 01:07:24;;;;;;;76.28;29.10;;;;;;;11.50;78.40;102437.28;5011342;28;20444;-49
2023/12/19 01:09:49;;;;;;;79.68;28.63;;;;;;;11.47;78.56;102437.16;5011596;28;20029;-48
2023/12/19 01:12:15;;;;;;;88.95;30.70;;;;;;;11.01;80.22;102426.81;5010765;28;20408;-45
2023/12/19 01:14:41;;;;;;;84.38;29.88;;;;;;;11.28;79.39;102433.00;5011468;28;20041;-50
2023/12/19 01:17:07;;;;;;;87.05;30.33;;;;;;;11.17;80.00;102430.84;5011052;28;20053;-47
2023/12/19 01:19:32;;;;;;;74.30;29.65;;;;;;;11.55;78.77;102429.59;5011779;28;20141;-46
2023/12/19 01:21:58;;;;;;;77.82;29.02;;;;;;;11.60;78.64;102436.75;5011802;28;20026;-45
2023/12/19 01:24:23;;;;;;;78.00;28.17;;;;;;;11.53;78.76;102436.47;5010906;28;20046;-46
2023/12/19 01:26:49;;;;;;;77.70;29.10;;;;;;;11.02;80.29;102425.09;5009923;28;20049;-49
2023/12/19 01:29:15;;;;;;;80.47;28.50;;;;;;;11.39;79.59;102426.47;5011069;28;20049;-47
2023/12/19 01:31:40;;;;;;;73.65;28.48;;;;;;;11.11;79.76;102420.19;4993439;28;20160;-44
2023/12/19 01:34:06;;;;;;;83.55;29.70;;;;;;;10.91;80.91;102411.69;5010983;28;20038;-46
2023/12/19 01:36:31;;;;;;;77.78;28.85;;;;;;;11.18;80.04;102416.97;5011337;28;20036;-45
2023/12/19 01:38:56;;;;;;;78.38;28.27;;;;;;;11.15;80.18;102419.50;5011427;28;20037;-44
2023/12/19 01:41:22;;;;;;;76.35;28.50;;;;;;;11.21;80.10;102420.59;5010262;28;20029;-43
2023/12/19 01:43:48;;;;;;;73.65;29.00;;;;;;;11.04;80.20;102408.66;5011248;28;20079;-47
2023/12/19 01:46:16;;;;;;;75.43;28.45;;;;;;;11.23;80.38;102415.41;5010907;28;20030;-45
2023/12/19 01:48:42;;;;;;;68.93;26.33;;;;;;;11.31;79.82;102414.84;5011360;28;20030;-47
2023/12/19 01:51:08;;;;;;;70.85;27.55;;;;;;;10.92;81.20;102413.44;5009996;28;20121;-43
2023/12/19 01:53:34;;;;;;;70.57;26.70;;;;;;;11.06;80.90;102413.94;5011535;28;20606;-44
2023/12/19 01:56:00;;;;;;;67.97;26.33;;;;;;;11.20;79.34;102399.66;5011101;28;20034;-41
2023/12/19 01:58:25;;;;;;;63.00;25.45;;;;;;;11.09;80.25;102390.56;5011002;28;20053;-43
2023/12/19 02:00:51;;;;;;;59.03;24.48;;;;;;;11.48;78.51;102380.59;5010948;28;20030;-45
2023/12/19 02:03:17;;;;;;;63.25;25.42;;;;;;;11.30;79.64;102383.47;5010619;28;20489;-47
2023/12/19 02:05:43;;;;;;;60.40;25.05;;;;;;;11.35;79.42;102385.41;5010959;28;20437;-48
2023/12/19 02:08:09;;;;;;;63.42;25.92;;;;;;;10.92;80.82;102379.50;5010408;28;20042;-44
2023/12/19 02:10:34;;;;;;;64.25;25.85;;;;;;;11.14;80.20;102379.44;5011071;28;20032;-44
2023/12/19 02:13:00;;;;;;;66.05;26.50;;;;;;;11.53;79.00;102381.63;5010487;28;20520;-43
2023/12/19 02:15:26;;;;;;;61.88;26.35;;;;;;;11.30;78.89;102375.63;5010892;28;20026;-44
2023/12/19 02:17:51;;;;;;;64.15;25.73;;;;;;;11.10;79.68;102374.94;5010892;28;20045;-44
2023/12/19 02:20:19;;;;;;;66.07;26.27;;;;;;;11.06;80.95;102374.78;5008568;28;20034;-44
2023/12/19 02:22:49;;;;;;;67.57;27.05;;;;;;;10.96;80.27;102360.53;5009440;28;20492;-44
2023/12/19 02:25:15;;;;;;;64.75;26.40;;;;;;;11.06;81.43;102354.78;5008801;28;20500;-44
2023/12/19 02:27:40;;;;;;;65.45;26.58;;;;;;;11.02;81.44;102342.50;5008803;28;20511;-45
2023/12/19 02:30:06;;;;;;;66.68;27.02;;;;;;;10.94;81.26;102346.53;5009765;28;20038;-46
2023/12/19 02:32:33;;;;;;;64.28;26.48;;;;;;;11.07;80.02;102335.69;5009609;28;20045;-48
2023/12/19 02:34:59;;;;;;;67.90;26.17;;;;;;;10.91;81.78;102339.50;5009998;28;20037;-46
2023/12/19 02:37:24;;;;;;;59.78;24.67;;;;;;;11.12;80.77;102347.19;5021134;28;20132;-49
2023/12/19 02:39:49;;;;;;;65.38;25.15;;;;;;;11.42;79.72;102339.50;5029850;28;20471;-49
2023/12/19 02:42:14;;;;;;;62.03;25.05;;;;;;;11.27;80.61;102326.84;5028982;28;20123;-45
2023/12/19 02:44:40;;;;;;;55.20;23.27;;;;;;;11.68;78.85;102319.44;5029374;28;20116;-45
2023/12/19 02:47:05;;;;;;;58.53;24.95;;;;;;;10.98;80.08;102320.59;5029206;28;20104;-44
2023/12/19 02:49:31;;;;;;;57.47;24.23;;;;;;;11.46;79.21;102314.38;5030070;28;20037;-45
2023/12/19 02:51:56;;;;;;;58.45;24.35;;;;;;;11.06;80.27;102317.38;5029440;28;20040;-48
2023/12/19 02:54:22;;;;;;;56.35;24.38;;;;;;;11.46;79.83;102299.59;5029167;28;20057;-46
2023/12/19 02:56:47;;;;;;;56.33;23.55;;;;;;;11.64;79.54;102304.53;5029733;28;20041;-44
2023/12/19 02:59:12;;;;;;;56.97;24.10;;;;;;;11.34;80.11;102297.44;5029254;28;20069;-48
2023/12/19 03:01:38;;;;;;;51.25;24.20;;;;;;;11.08;81.16;102307.88;5029042;28;20030;-44
2023/12/19 03:04:03;;;;;;;49.92;23.27;;;;;;;11.29;80.49;102301.63;5029391;28;20087;-45
2023/12/19 03:06:28;;;;;;;52.95;22.35;;;;;;;11.58;79.23;102286.94;5031207;28;20033;-45
2023/12/19 03:08:57;;;;;;;52.90;22.75;;;;;;;11.38;79.09;102288.91;5033823;28;20103;-46
2023/12/19 03:11:22;;;;;;;49.03;21.85;;;;;;;11.54;79.21;102289.38;5032825;28;20039;-45
2023/12/19 03:13:48;;;;;;;57.80;23.40;;;;;;;11.27;79.61;102278.94;5033257;28;20492;-45
2023/12/19 03:16:13;;;;;;;47.25;21.50;;;;;;;11.47;78.88;102266.50;5032764;28;20037;-46
2023/12/19 03:18:38;;;;;;;48.25;22.05;;;;;;;11.49;78.58;102270.97;5033505;28;20120;-47
2023/12/19 03:21:04;;;;;;;47.95;21.30;;;;;;;11.34;80.50;102258.28;5032556;28;20052;-49
2023/12/19 03:23:29;;;;;;;45.15;21.42;;;;;;;11.23;80.67;102256.16;5033158;28;20033;-49
2023/12/19 03:25:54;;;;;;;49.38;21.75;;;;;;;11.14;80.72;102258.50;5039780;23;20451;-80
2023/12/19 03:28:20;;;;;;;46.30;22.80;;;;;;;10.89;81.48;102268.09;5041700;28;20061;-77
2023/12/19 03:30:50;;;;;;;45.78;22.02;;;;;;;11.12;81.08;102249.72;5046100;28;20037;-80
2023/12/19 03:33:15;;;;;;;56.90;23.35;;;;;;;11.06;81.66;102257.34;5041922;28;20371;-80
2023/12/19 03:35:41;;;;;;;54.92;24.25;;;;;;;11.22;81.10;102243.97;5043095;28;20043;-79
2023/12/19 03:38:06;;;;;;;51.47;23.98;;;;;;;11.14;81.19;102229.78;5041517;28;20048;-80
2023/12/19 03:40:33;;;;;;;51.53;23.05;;;;;;;11.65;79.42;102217.47;5044753;28;20441;-80
2023/12/19 03:42:58;;;;;;;51.55;22.80;;;;;;;11.40;80.82;102202.78;5043811;28;20064;-78
2023/12/19 03:45:24;;;;;;;50.70;22.88;;;;;;;11.38;80.15;102196.63;5044155;28;20033;-79
2023/12/19 03:47:49;;;;;;;48.47;21.95;;;;;;;11.49;80.29;102197.84;5044677;28;20037;-80
2023/12/19 03:50:14;;;;;;;42.90;21.50;;;;;;;11.68;79.53;102194.06;5044728;28;20117;-78
2023/12/19 03:52:42;;;;;;;41.85;20.40;;;;;;;11.48;78.90;102184.72;5044729;28;20037;-80
2023/12/19 03:55:11;;;;;;;40.85;19.92;;;;;;;11.54;79.83;102195.34;5044574;28;20132;-80
2023/12/19 03:57:36;;;;;;;40.15;20.13;;;;;;;11.49;80.14;102190.00;5045516;28;20029;-79
2023/12/19 04:00:03;;;;;;;47.25;20.10;;;;;;;11.51;79.26;102190.94;5046098;28;20533;-80
2023/12/19 04:02:28;;;;;;;42.53;19.92;;;;;;;11.16;81.27;102183.75;5046313;28;20026;-80
2023/12/19 04:04:54;;;;;;;41.35;19.83;;;;;;;11.30;80.62;102185.03;5048666;28;20064;-81
2023/12/19 04:07:25;;;;;;;41.28;20.50;;;;;;;11.53;80.49;102175.28;5047426;28;20095;-81
2023/12/19 04:09:50;;;;;;;49.35;21.10;;;;;;;11.45;80.33;102182.94;5047516;28;20064;-80
2023/12/19 04:12:18;;;;;;;42.95;19.52;;;;;;;11.02;81.56;102195.47;5047137;28;20038;-80
2023/12/19 04:14:44;;;;;;;43.13;20.17;;;;;;;11.64;80.76;102184.38;5049294;28;20539;-80
2023/12/19 04:17:10;;;;;;;43.58;19.67;;;;;;;11.35;81.29;102188.69;5045912;28;20065;-80
2023/12/19 04:19:36;;;;;;;38.90;19.63;;;;;;;11.86;79.34;102175.44;5040627;28;20085;-80
2023/12/19 04:22:08;;;;;;;39.97;19.15;;;;;;;11.64;79.12;102173.91;5039867;28;20467;-80
2023/12/19 04:24:33;;;;;;;39.10;18.70;;;;;;;11.40;80.94;102174.06;5038351;28;20626;-79
2023/12/19 04:26:58;;;;;;;41.17;19.23;;;;;;;11.13;82.16;102174.09;5039460;28;20042;-81
2023/12/19 04:29:27;;;;;;;39.75;18.83;;;;;;;11.43;80.75;102163.69;5038157;28;20056;-80
2023/12/19 04:31:58;;;;;;;38.80;19.10;;;;;;;11.60;80.07;102164.19;5038599;28;20037;-80
2023/12/19 04:34:24;;;;;;;37.17;19.25;;;;;;;11.43;81.73;102162.81;5037735;28;20391;-81
2023/12/19 04:36:49;;;;;;;43.03;20.40;;;;;;;11.55;81.46;102165.78;5037854;28;20040;-81
2023/12/19 04:39:17;;;;;;;43.90;20.92;;;;;;;11.28;81.46;102152.81;5036227;28;20520;-80
2023/12/19 04:41:42;;;;;;;39.88;20.20;;;;;;;11.68;81.07;102141.81;5036526;28;20056;-81
2023/12/19 04:44:07;;;;;;;41.35;20.05;;;;;;;11.59;80.85;102141.53;5037035;28;20549;-81
2023/12/19 04:46:35;;;;;;;45.20;20.98;;;;;;;11.69;81.28;102148.81;5038953;28;20068;-80
2023/12/19 04:49:04;;;;;;;45.80;22.00;;;;;;;11.62;81.83;102150.34;5036799;28;20052;-79
2023/12/19 04:51:29;;;;;;;49.13;22.48;;;;;;;11.78;80.87;102146.47;5037932;28;20017;-79
2023/12/19 04:53:54;;;;;;;48.95;22.17;;;;;;;11.56;81.41;102154.50;5041545;28;20068;-80
2023/12/19 04:56:19;;;;;;;53.10;23.10;;;;;;;11.55;81.43;102147.50;5041333;28;20029;-80
2023/12/19 04:58:54;;;;;;;53.72;24.30;;;;;;;11.42;81.16;102147.97;5040602;28;20049;-81
2023/12/19 05:01:25;;;;;;;56.63;24.63;;;;;;;11.37;82.91;102142.63;5039001;28;20037;-81
2023/12/19 05:03:51;;;;;;;52.75;23.52;;;;;;;11.67;81.84;102140.91;5038746;28;20068;-82
2023/12/19 05:06:19;;;;;;;55.72;23.77;;;;;;;11.70;82.67;102142.75;5037456;28;20041;-82
2023/12/19 05:08:48;;;;;;;54.58;23.02;;;;;;;11.98;80.43;102147.94;5039087;28;20041;-81
2023/12/19 05:11:16;;;;;;;48.10;22.35;;;;;;;11.34;82.17;102139.94;5041826;28;20502;-80
2023/12/19 05:13:41;;;;;;;47.67;21.55;;;;;;;11.75;81.81;102134.25;5040680;28;20486;-82
2023/12/19 05:16:15;;;;;;;41.47;20.13;;;;;;;11.65;82.38;102131.25;5038752;28;20084;-79
2023/12/19 05:18:41;;;;;;;43.60;20.40;;;;;;;11.95;80.63;102132.19;5038788;28;20109;-81
2023/12/19 05:21:07;;;;;;;40.67;19.70;;;;;;;11.99;80.46;102127.91;5035926;28;20059;-82
2023/12/19 05:23:35;;;;;;;36.97;17.63;;;;;;;11.72;81.82;102125.38;5044808;28;20104;-78
2023/12/19 05:26:00;;;;;;;37.17;17.85;;;;;;;11.60;82.48;102125.91;5043760;28;20034;-81
2023/12/19 05:28:25;;;;;;;31.45;16.90;;;;;;;11.68;82.63;102124.41;5042919;28;20056;-80
2023/12/19 05:30:56;;;;;;;36.42;17.00;;;;;;;11.70;81.97;102121.84;5041278;28;20052;-82
2023/12/19 05:33:24;;;;;;;32.17;17.02;;;;;;;11.58;82.98;102121.50;5038475;28;20496;-81
2023/12/19 05:35:50;;;;;;;35.95;16.75;;;;;;;11.77;82.65;102109.00;5040720;28;20041;-80
2023/12/19 05:38:16;;;;;;;33.03;16.10;;;;;;;12.03;81.66;102114.97;5040458;28;20044;-79
2023/12/19 05:40:45;;;;;;;33.08;16.17;;;;;;;11.90;82.37;102096.28;5041607;28;20040;-80
2023/12/19 05:43:20;;;;;;;32.60;15.82;;;;;;;11.80;82.54;102089.94;5039821;28;20398;-79
2023/12/19 05:45:45;;;;;;;30.35;15.88;;;;;;;12.01;82.45;102092.25;5039912;28;20034;-79
2023/12/19 05:48:22;;;;;;;31.77;16.27;;;;;;;11.64;82.85;102088.59;5035926;28;20056;-80
2023/12/19 05:50:49;;;;;;;34.22;16.10;;;;;;;12.12;81.20;102089.09;5034071;28;20551;-79
2023/12/19 05:53:15;;;;;;;35.63;15.38;;;;;;;12.23;81.56;102081.50;5030475;28;20112;-80
2023/12/19 05:55:40;;;;;;;34.65;16.40;;;;;;;12.17;81.63;102071.78;5030011;28;20395;-81
2023/12/19 05:58:05;;;;;;;35.90;16.58;;;;;;;12.14;82.57;102074.31;5032975;28;20041;-79
2023/12/19 06:00:31;;;;;;;37.63;17.10;;;;;;;12.22;82.00;102074.50;5035606;28;20132;-82
2023/12/19 06:02:57;;;;;;;39.63;17.25;;;;;;;12.11;82.25;102068.13;5037362;28;20117;-81
2023/12/19 06:05:24;;;;;;;41.75;17.70;;;;;;;12.10;82.41;102067.25;5036798;28;20025;-81
2023/12/19 06:07:49;;;;;;;34.22;16.75;;;;;;;12.29;81.93;102078.16;5037601;28;20040;-81
2023/12/19 06:10:14;;;;;;;44.17;17.23;;;;;;;12.14;82.36;102060.34;5034883;28;20041;-81
2023/12/19 06:12:46;;;;;;;36.88;17.33;;;;;;;11.60;84.51;102063.22;5035322;28;20033;-81
2023/12/19 06:15:15;;;;;;;39.65;16.55;;;;;;;12.26;82.69;102059.81;5035229;28;20091;-81
2023/12/19 06:17:46;;;;;;;38.13;16.60;;;;;;;12.39;82.86;102067.97;5035692;28;20036;-81
2023/12/19 06:20:14;;;;;;;38.97;17.17;;;;;;;12.19;83.88;102066.59;5032689;28;20441;-80
2023/12/19 06:22:41;;;;;;;39.38;17.35;;;;;;;12.23;83.28;102054.47;5035101;28;20052;-80
2023/12/19 06:25:07;;;;;;;48.35;17.85;;;;;;;12.38;82.18;102047.03;5027629;28;20526;-80
2023/12/19 06:27:34;;;;;;;47.70;17.92;;;;;;;12.45;82.82;102046.31;5036622;28;20037;-81
2023/12/19 06:30:03;;;;;;;46.20;17.92;;;;;;;12.77;81.35;102041.84;5040911;28;20498;-79
2023/12/19 06:32:28;;;;;;;44.85;18.20;;;;;;;12.54;81.57;102046.56;5040959;28;20044;-81
2023/12/19 06:34:55;;;;;;;46.78;18.73;;;;;;;12.21;83.10;102049.22;5040805;28;20037;-78
2023/12/19 06:37:21;;;;;;;51.88;19.33;;;;;;;12.29;83.87;102033.72;5042248;28;20045;-79
2023/12/19 06:39:52;;;;;;;40.45;18.38;;;;;;;12.55;82.30;102030.91;5040757;28;20113;-80
2023/12/19 06:42:18;;;;;;;46.42;19.33;;;;;;;12.36;82.54;102043.50;5038385;28;20040;-80
2023/12/19 06:44:43;;;;;;;49.45;18.85;;;;;;;12.55;82.98;102037.88;5040208;28;20410;-81
2023/12/19 06:47:17;;;;;;;50.65;18.52;;;;;;;12.82;81.61;102042.84;5039351;28;20402;-79
2023/12/19 06:49:43;;;;;;;55.80;19.90;;;;;;;12.49;82.39;102038.59;5043667;28;20033;-79
2023/12/19 06:52:09;;;;;;;51.58;19.83;;;;;;;12.34;83.05;102039.94;5042527;28;20026;-80
2023/12/19 06:54:40;;;;;;;54.50;20.33;;;;;;;12.41;83.89;102028.78;5044540;28;20044;-78
2023/12/19 06:57:06;;;;;;;51.75;19.38;;;;;;;12.38;83.26;102036.56;5042222;28;20052;-79
2023/12/19 06:59:34;;;;;;;50.53;19.45;;;;;;;12.67;82.95;102017.22;5040198;28;20124;-78
2023/12/19 07:02:00;;;;;;;54.33;20.02;;;;;;;12.90;81.58;102033.44;5039720;28;20056;-78
2023/12/19 07:04:26;;;;;;;50.67;19.15;;;;;;;12.33;84.24;102028.59;5041058;28;20510;-80
2023/12/19 07:06:54;;;;;;;54.80;18.83;;;;;;;12.38;84.66;102037.44;5035530;28;20053;-79
2023/12/19 07:09:20;;;;;;;51.15;18.65;;;;;;;12.54;83.03;102042.22;5038899;28;20198;-79
2023/12/19 07:11:45;;;;;;;46.10;17.02;;;;;;;12.62;83.48;102031.94;5038936;28;20030;-82
2023/12/19 07:14:13;;;;;;;45.30;16.00;;;;;;;12.77;82.79;102027.03;5038803;28;20041;-81
2023/12/19 07:16:39;;;;;;;42.67;16.45;;;;;;;12.71;82.69;102020.78;5035760;28;20515;-80
2023/12/19 07:19:04;;;;;;;35.65;15.30;;;;;;;12.46;83.95;102016.69;5033156;28;20037;-82
2023/12/19 07:21:31;;;;;;;35.65;15.10;;;;;;;12.70;83.47;102017.28;5033496;28;20026;-81
2023/12/19 07:23:58;;;;;;;29.15;13.82;;;;;;;12.91;82.96;102016.88;5032705;28;20037;-80
2023/12/19 07:26:28;;;;;;;35.60;14.40;;;;;;;12.59;83.96;102006.56;5031701;28;20033;-79
2023/12/19 07:28:57;;;;;;;33.70;15.73;;;;;;;12.80;82.92;102013.16;5032781;28;20038;-81
2023/12/19 07:31:24;;;;;;;34.40;15.02;;;;;;;12.63;83.67;102012.75;5033899;28;20041;-81
2023/12/19 07:33:59;;;;;;;37.83;15.35;;;;;;;13.00;82.17;102007.47;5034041;28;20026;-81
2023/12/19 07:36:25;;;;;;;31.80;14.57;;;;;;;12.78;82.22;102013.09;5032891;28;20112;-81
2023/12/19 07:38:52;;;;;;;33.17;14.27;;;;;;;12.53;83.52;102011.66;5034255;28;20026;-82
2023/12/19 07:41:17;;;;;;;34.70;15.07;;;;;;;12.42;83.53;102009.63;5031700;28;20044;-81
2023/12/19 07:43:43;;;;;;;33.10;15.48;;;;;;;12.68;82.52;102010.25;5032064;28;20034;-80
2023/12/19 07:46:08;;;;;;;36.30;15.85;;;;;;;12.71;82.35;102007.69;5033268;28;20171;-80
2023/12/19 07:48:33;;;;;;;36.47;16.20;;;;;;;12.55;82.95;102009.97;5034402;28;20233;-81
2023/12/19 07:50:59;;;;;;;41.03;16.30;;;;;;;12.77;82.28;102013.94;5032963;28;20454;-80
2023/12/19 07:53:28;;;;;;;36.75;16.17;;;;;;;12.69;82.00;102010.25;5036132;28;20060;-80
2023/12/19 07:55:53;;;;;;;32.55;15.88;;;;;;;12.76;82.33;102012.19;5036364;28;20034;-80
2023/12/19 07:58:19;;;;;;;34.17;16.23;;;;;;;12.53;83.32;102001.19;5036287;28;20095;-81
2023/12/19 08:00:44;;;;;;;34.33;16.02;;;;;;;12.94;81.67;102003.84;5036386;28;20034;-81
2023/12/19 08:03:16;;;;;;;34.05;16.30;;;;;;;12.93;81.21;101997.72;5035177;28;20491;-80
2023/12/19 08:05:50;;;;;;;41.72;17.25;;;;;;;12.66;81.58;101996.25;5037379;28;20061;-81
2023/12/19 08:08:18;;;;;;;35.58;16.83;;;;;;;12.71;82.24;101998.13;5035508;28;20064;-81
2023/12/19 08:10:47;;;;;;;34.28;16.60;;;;;;;12.40;82.59;101995.63;5037402;28;20040;-80
2023/12/19 08:13:12;;;;;;;35.53;15.70;;;;;;;12.74;81.85;101989.47;5035381;28;20029;-82
2023/12/19 08:15:41;;;;;;;32.53;16.75;;;;;;;12.34;83.12;101987.66;5036864;28;20445;-81
2023/12/19 08:18:07;;;;;;;31.98;16.30;;;;;;;12.40;82.96;101986.06;5035594;28;20071;-80
2023/12/19 08:20:35;;;;;;;29.90;15.82;;;;;;;12.72;81.29;101984.19;5036291;28;20060;-82
2023/12/19 08:23:01;;;;;;;35.53;16.98;;;;;;;12.57;81.90;101989.94;5036105;28;20041;-80
2023/12/19 08:25:37;;;;;;;30.17;15.93;;;;;;;12.82;80.86;101986.16;5034318;28;20124;-79
2023/12/19 08:28:04;;;;;;;36.47;16.38;;;;;;;12.34;83.72;101972.84;5035158;28;20045;-79
2023/12/19 08:30:30;;;;;;;28.52;15.38;;;;;;;12.58;82.80;101972.53;5037473;28;20060;-79
2023/12/19 08:32:58;;;;;;;29.88;15.25;;;;;;;12.67;82.17;101983.22;5037481;28;20064;-79
2023/12/19 08:35:24;;;;;;;30.25;14.38;;;;;;;12.74;81.55;101969.41;5034791;28;20021;-80
2023/12/19 08:37:50;;;;;;;25.63;14.38;;;;;;;12.76;81.84;101980.78;5034670;28;20040;-79
2023/12/19 08:40:19;;;;;;;29.50;14.57;;;;;;;12.53;82.16;101967.19;5037938;28;20049;-78
2023/12/19 08:42:57;;;;;;;27.10;14.60;;;;;;;11.96;84.35;101971.00;5039016;28;20057;-79
2023/12/19 08:45:26;;;;;;;30.90;14.85;;;;;;;12.43;83.85;101967.84;5038517;28;20105;-81
2023/12/19 08:47:58;;;;;;;32.03;15.30;;;;;;;12.03;84.08;101959.88;5039243;28;20089;-81
2023/12/19 08:50:32;;;;;;;31.13;15.20;;;;;;;12.39;83.26;101960.75;5038820;28;20033;-80
2023/12/19 08:52:58;;;;;;;31.80;15.65;;;;;;;12.34;83.79;101956.25;5033681;28;20034;-79
2023/12/19 08:55:26;;;;;;;31.00;15.93;;;;;;;12.48;83.28;101965.31;5035541;28;20437;-77
2023/12/19 08:57:52;;;;;;;30.25;15.38;;;;;;;12.34;83.74;101954.53;5036206;28;20056;-79
2023/12/19 09:00:19;;;;;;;33.33;15.43;;;;;;;12.33;82.99;101955.38;5035920;28;20502;-79
2023/12/19 09:02:48;;;;;;;29.92;15.40;;;;;;;12.41;83.42;101961.69;5034437;28;20150;-80
2023/12/19 09:05:17;;;;;;;31.40;15.65;;;;;;;12.34;82.98;101944.06;5034289;28;20095;-81
2023/12/19 09:07:46;;;;;;;29.30;15.52;;;;;;;12.30;83.44;101957.06;5034553;28;20069;-79
2023/12/19 09:10:13;;;;;;;28.98;15.27;;;;;;;12.31;83.54;101959.72;5034652;28;20445;-82
2023/12/19 09:12:42;;;;;;;28.27;14.75;;;;;;;12.47;82.20;101955.69;5035568;28;20109;-82
2023/12/19 09:15:09;;;;;;;28.92;14.63;;;;;;;12.69;82.21;101949.19;5033361;28;20248;-80
2023/12/19 09:17:37;;;;;;;30.70;14.48;;;;;;;12.41;82.39;101952.94;5034497;28;20076;-79
2023/12/19 09:20:05;;;;;;;25.30;14.75;;;;;;;12.72;82.07;101944.94;5033573;28;20038;-79
2023/12/19 09:22:30;;;;;;;30.98;15.35;;;;;;;12.07;83.18;101946.06;5034252;28;20509;-78
2023/12/19 09:24:56;;;;;;;29.50;15.27;;;;;;;11.99;84.14;101942.34;5032221;28;20042;-78
2023/12/19 09:27:21;;;;;;;30.10;14.63;;;;;;;12.07;83.76;101935.59;5031434;28;20668;-78
2023/12/19 09:29:47;;;;;;;29.08;14.43;;;;;;;12.45;82.88;101939.97;5037203;28;20029;-78
2023/12/19 09:32:18;;;;;;;29.83;14.73;;;;;;;12.32;83.12;101939.69;5038065;28;20051;-81
2023/12/19 09:34:47;;;;;;;28.92;14.00;;;;;;;12.44;82.68;101927.72;5036319;28;20040;-79
2023/12/19 09:37:15;;;;;;;27.10;13.75;;;;;;;12.43;82.94;101927.72;5036917;28;20095;-79
2023/12/19 09:39:40;;;;;;;25.48;14.07;;;;;;;12.38;82.96;101929.34;5036601;28;20554;-80
2023/12/19 09:42:06;;;;;;;26.20;13.95;;;;;;;12.12;84.41;101928.75;5036862;28;20034;-80
2023/12/19 09:44:32;;;;;;;28.63;14.30;;;;;;;12.45;82.61;101931.22;5035127;28;20036;-79
2023/12/19 09:47:07;;;;;;;25.27;13.80;;;;;;;12.64;82.58;101919.44;5035525;28;20547;-80
2023/12/19 09:49:39;;;;;;;28.83;14.18;;;;;;;12.19;83.99;101923.69;5034719;28;20435;-80
2023/12/19 09:52:08;;;;;;;27.17;13.52;;;;;;;12.38;83.07;101922.38;5036506;28;20521;-81
2023/12/19 09:54:36;;;;;;;27.67;13.48;;;;;;;12.51;82.75;101923.53;5034157;28;20044;-79
2023/12/19 09:57:03;;;;;;;25.88;13.25;;;;;;;12.37;83.45;101930.19;5035121;28;20059;-80
2023/12/19 09:59:28;;;;;;;24.25;13.02;;;;;;;12.15;83.55;101924.47;5036338;28;20037;-81
2023/12/19 10:01:54;;;;;;;27.33;13.95;;;;;;;12.43;82.93;101920.75;5036387;28;20041;-80
2023/12/19 10:04:19;;;;;;;24.40;13.10;;;;;;;12.52;82.63;101912.22;5035698;28;20044;-80
2023/12/19 10:06:54;;;;;;;21.60;12.93;;;;;;;12.26;83.98;101914.25;5035170;28;20558;-79
2023/12/19 10:09:21;;;;;;;25.90;12.65;;;;;;;12.37;84.64;101911.91;5034505;28;20449;-80
2023/12/19 10:11:48;;;;;;;25.27;12.90;;;;;;;12.39;83.15;101911.06;5033963;28;20033;-80
2023/12/19 10:14:14;;;;;;;24.50;12.68;;;;;;;12.20;84.74;101901.03;5033390;28;20029;-81
2023/12/19 10:16:43;;;;;;;26.23;12.98;;;;;;;12.51;82.91;101899.97;5031437;28;20098;-78
2023/12/19 10:19:13;;;;;;;24.17;13.20;;;;;;;12.43;83.32;101896.34;5034028;28;20042;-81
2023/12/19 10:21:40;;;;;;;21.65;12.05;;;;;;;12.55;82.53;101894.00;5032801;28;20037;-79
2023/12/19 10:24:09;;;;;;;22.08;12.25;;;;;;;12.43;83.09;101889.38;5032071;28;20041;-78
2023/12/19 10:26:38;;;;;;;21.88;11.52;;;;;;;12.30;83.94;101886.44;5033927;28;20116;-78
2023/12/19 10:29:05;;;;;;;21.75;11.63;;;;;;;12.30;83.62;101871.66;5032770;28;20038;-79
2023/12/19 10:31:30;;;;;;;22.60;11.82;;;;;;;12.75;82.61;101865.59;5034374;28;20120;-79
2023/12/19 10:33:56;;;;;;;22.40;11.77;;;;;;;12.76;82.59;101862.13;5034554;28;20072;-78
2023/12/19 10:36:27;;;;;;;22.70;11.65;;;;;;;12.75;80.97;101863.00;5034971;28;20025;-77
2023/12/19 10:38:55;;;;;;;21.33;11.93;;;;;;;12.56;83.26;101857.38;5036151;28;20041;-78
2023/12/19 10:41:33;;;;;;;21.38;11.30;;;;;;;12.47;83.03;101859.81;5035492;28;20068;-78
2023/12/19 10:44:00;;;;;;;23.25;11.45;;;;;;;12.31;83.26;101855.13;5032502;28;20049;-79
2023/12/19 10:46:28;;;;;;;19.92;11.35;;;;;;;12.57;83.23;101851.31;5031550;28;20030;-79
2023/12/19 10:48:54;;;;;;;21.98;11.65;;;;;;;12.49;82.07;101854.63;5033647;28;20040;-79
2023/12/19 10:51:30;;;;;;;21.35;11.95;;;;;;;12.54;82.70;101856.50;5032715;28;20041;-78
2023/12/19 10:54:16;;;;;;;17.77;11.60;;;;;;;12.82;82.00;101839.59;5034168;28;20402;-79
2023/12/19 10:57:16;;;;;;;20.88;11.38;;;;;;;12.55;82.04;101819.03;5034804;28;20030;-79
2023/12/19 11:00:00;;;;;;;24.40;11.50;;;;;;;12.37;83.21;101812.53;5032713;28;20037;-80
2023/12/19 11:02:38;;;;;;;20.23;11.45;;;;;;;12.46;82.67;101816.19;5032790;28;20513;-80
2023/12/19 11:05:36;;;;;;;18.17;11.35;;;;;;;12.32;83.51;101816.78;5030808;28;20510;-79
2023/12/19 11:08:14;;;;;;;19.10;11.60;;;;;;;12.05;84.73;101807.47;5030282;28;20034;-81
2023/12/19 11:10:56;;;;;;;19.50;10.98;;;;;;;12.34;83.39;101796.75;5032750;28;20033;-80